Time;durP1;ratioP1;P1;durP2;ratioP2;P2;SDS_P1;SDS_P2;PMS_P1;PMS_P2;Temp;Humidity;BMP_temperature;BMP_pressure;BME280_temperature;BME280_humidity;BME280_pressure;Samples;Min_cycle;Max_cycle;Signal;HPM_P1;HPM_P2
2021/03/20 00:03:50;;;;;;;5.28;2.72;;;-4.00;99.90;;;;;;20913083;28;20049;-50
2021/03/20 00:13:58;;;;;;;6.78;3.40;;;-4.30;99.90;;;;;;20911466;28;20094;-51
2021/03/20 00:24:00;;;;;;;5.25;2.83;;;-4.50;99.90;;;;;;20910650;28;20045;-48
2021/03/20 00:34:02;;;;;;;6.32;3.28;;;-4.70;99.90;;;;;;20910047;28;20033;-50
2021/03/20 00:44:05;;;;;;;5.20;2.97;;;-4.90;99.90;;;;;;20910459;28;20495;-51
2021/03/20 00:54:07;;;;;;;4.78;2.83;;;-4.60;99.90;;;;;;20910163;28;20032;-49
2021/03/20 01:04:09;;;;;;;6.47;3.20;;;-4.50;99.90;;;;;;20908166;28;20049;-48
2021/03/20 01:14:11;;;;;;;8.02;3.13;;;-4.70;99.90;;;;;;20907878;28;20067;-51
2021/03/20 01:24:13;;;;;;;5.13;2.72;;;-4.90;99.90;;;;;;20908897;28;20045;-48
2021/03/20 01:34:15;;;;;;;4.53;2.63;;;-4.90;99.90;;;;;;20908247;28;20037;-49
2021/03/20 01:44:20;;;;;;;4.35;2.35;;;-4.70;99.90;;;;;;20907464;28;20049;-49
2021/03/20 01:54:25;;;;;;;4.05;2.08;;;-4.40;99.90;;;;;;20906556;28;20126;-52
2021/03/20 02:04:27;;;;;;;4.20;2.10;;;-4.10;99.90;;;;;;20905494;28;20045;-58
2021/03/20 02:14:37;;;;;;;4.60;2.40;;;-4.10;99.90;;;;;;20916543;28;20087;-49
2021/03/20 02:25:17;;;;;;;3.27;1.70;;;-4.30;99.90;;;;;;20920410;28;20098;-51
2021/03/20 02:35:44;;;;;;;3.38;1.90;;;-4.30;99.90;;;;;;20920675;28;20036;-48
2021/03/20 02:45:53;;;;;;;5.78;1.98;;;-4.20;99.90;;;;;;20919909;28;20400;-49
2021/03/20 02:55:58;;;;;;;3.20;1.70;;;-4.10;99.90;;;;;;20917916;28;20036;-50
2021/03/20 03:06:04;;;;;;;3.70;2.03;;;-4.10;99.90;;;;;;20900406;28;20048;-52
2021/03/20 03:16:23;;;;;;;4.55;2.47;;;-4.20;99.90;;;;;;20899512;28;20088;-48
2021/03/20 03:26:38;;;;;;;3.35;1.80;;;-4.20;99.90;;;;;;20898746;28;20125;-51
2021/03/20 03:36:57;;;;;;;3.72;2.00;;;-4.10;99.90;;;;;;20915906;28;20032;-54
2021/03/20 03:47:00;;;;;;;3.88;1.73;;;-4.30;99.90;;;;;;20897048;28;20056;-51
2021/03/20 03:57:14;;;;;;;3.00;1.42;;;-4.40;99.00;;;;;;20912533;28;20045;-50
2021/03/20 04:07:43;;;;;;;2.85;1.75;;;-4.20;97.80;;;;;;20895138;28;20075;-49
2021/03/20 04:17:57;;;;;;;3.72;1.67;;;-4.50;97.20;;;;;;20912396;28;20090;-50
2021/03/20 04:28:25;;;;;;;3.00;1.60;;;-4.40;97.40;;;;;;20877430;28;20103;-52
2021/03/20 04:38:27;;;;;;;2.70;0.82;;;-4.50;98.00;;;;;;20909856;28;20090;-51
2021/03/20 04:48:36;;;;;;;2.60;1.25;;;-4.10;95.20;;;;;;20909165;28;20114;-52
2021/03/20 04:58:57;;;;;;;2.70;1.42;;;-4.00;94.90;;;;;;20909995;28;20045;-49
2021/03/20 05:09:04;;;;;;;2.78;1.40;;;-3.90;94.30;;;;;;20908120;28;20053;-52
2021/03/20 05:19:06;;;;;;;2.10;1.40;;;-4.10;94.10;;;;;;20908561;28;20059;-47
2021/03/20 05:29:08;;;;;;;3.72;2.08;;;-4.10;92.80;;;;;;20908663;28;20094;-49
2021/03/20 05:39:11;;;;;;;1.95;1.10;;;-4.00;92.40;;;;;;20908807;28;20036;-48
2021/03/20 05:49:34;;;;;;;3.30;1.58;;;-4.10;92.90;;;;;;20917581;28;20040;-47
2021/03/20 06:00:19;;;;;;;2.00;1.10;;;-4.10;93.10;;;;;;20923450;28;20041;-49
2021/03/20 06:10:52;;;;;;;1.92;1.20;;;-3.90;93.60;;;;;;20922172;28;20044;-52
2021/03/20 06:20:59;;;;;;;1.48;0.93;;;-3.80;92.70;;;;;;20921859;28;20056;-49
2021/03/20 06:31:07;;;;;;;1.30;0.93;;;-3.50;92.40;;;;;;20920244;28;20827;-52
2021/03/20 06:41:28;;;;;;;2.42;1.20;;;-3.40;92.00;;;;;;20886281;28;20388;-52
2021/03/20 06:51:30;;;;;;;2.25;1.00;;;-3.30;91.80;;;;;;20901656;28;20037;-52
2021/03/20 07:01:42;;;;;;;1.73;1.10;;;-3.10;91.60;;;;;;20918200;28;20115;-48
2021/03/20 07:12:01;;;;;;;1.50;0.80;;;-2.80;90.50;;;;;;20917803;28;20478;-49
2021/03/20 07:22:06;;;;;;;1.88;0.90;;;-2.30;90.10;;;;;;20915639;28;20067;-48
2021/03/20 07:32:16;;;;;;;1.98;0.82;;;-2.00;87.70;;;;;;20914881;28;20138;-49
2021/03/20 07:42:29;;;;;;;1.42;0.68;;;-1.70;87.00;;;;;;20881349;28;20037;-49
2021/03/20 07:52:31;;;;;;;1.70;0.85;;;-1.20;79.60;;;;;;20896827;28;20029;-53
2021/03/20 08:02:39;;;;;;;1.02;0.57;;;-0.60;77.40;;;;;;20913870;28;20545;-55
2021/03/20 08:12:51;;;;;;;1.08;0.80;;;-0.20;70.40;;;;;;20911280;28;20086;-52
2021/03/20 08:23:00;;;;;;;;;;;-0.10;70.70;;;;;;20895052;28;20555;-52
2021/03/20 08:33:29;;;;;;;0.85;0.20;;;-0.10;69.90;;;;;;20894753;28;19909;-51
2021/03/20 08:43:47;;;;;;;3.40;0.93;;;-0.10;71.90;;;;;;20893138;28;20557;-53
2021/03/20 08:54:19;;;;;;;1.75;0.80;;;0.10;69.30;;;;;;20909179;28;20025;-52
2021/03/20 09:04:33;;;;;;;6.47;1.65;;;0.60;64.50;;;;;;20908690;28;20091;-54
2021/03/20 09:14:43;;;;;;;1.13;0.65;;;0.80;63.70;;;;;;20909304;28;20063;-54
2021/03/20 09:24:59;;;;;;;2.58;1.10;;;0.80;62.70;;;;;;20920532;28;20090;-52
2021/03/20 09:35:19;;;;;;;1.73;0.77;;;0.70;58.80;;;;;;20891171;28;20033;-53
2021/03/20 09:45:28;;;;;;;1.05;0.60;;;0.90;59.60;;;;;;20923241;28;20472;-50
2021/03/20 09:55:29;;;;;;;1.73;0.75;;;1.20;51.20;;;;;;20923857;28;20083;-54
2021/03/20 10:05:32;;;;;;;1.63;0.80;;;1.40;56.00;;;;;;20888433;28;20045;-52
2021/03/20 10:15:36;;;;;;;1.00;0.60;;;1.40;56.30;;;;;;20887826;28;20094;-54
2021/03/20 10:26:02;;;;;;;1.80;0.95;;;1.60;54.20;;;;;;20920031;28;20041;-54
2021/03/20 10:36:16;;;;;;;1.42;0.90;;;1.60;49.30;;;;;;20920064;28;20117;-51
2021/03/20 10:46:20;;;;;;;1.40;0.90;;;2.10;48.10;;;;;;20918720;28;20041;-52
2021/03/20 10:56:32;;;;;;;1.48;1.00;;;2.10;54.40;;;;;;20901449;28;20391;-56
2021/03/20 11:06:35;;;;;;;1.42;0.80;;;1.90;52.90;;;;;;20900494;28;20135;-53
2021/03/20 11:16:52;;;;;;;1.52;0.75;;;2.10;49.40;;;;;;20916447;28;20033;-57
2021/03/20 11:26:54;;;;;;;3.17;1.90;;;1.70;47.50;;;;;;20916593;28;20098;-55
2021/03/20 11:37:00;;;;;;;3.50;1.83;;;1.90;66.60;;;;;;20915914;28;20052;-50
2021/03/20 11:47:05;;;;;;;4.28;2.70;;;3.00;65.40;;;;;;20896420;28;20037;-53
2021/03/20 11:57:28;;;;;;;5.40;2.42;;;4.50;77.70;;;;;;20896113;28;20033;-59
2021/03/20 12:07:30;;;;;;;3.33;2.33;;;5.00;70.50;;;;;;20912311;28;20072;-54
2021/03/20 12:17:33;;;;;;;3.92;2.63;;;5.30;64.40;;;;;;20879898;28;20326;-55
2021/03/20 12:27:38;;;;;;;4.65;3.13;;;4.30;69.80;;;;;;20912124;28;20106;-53
2021/03/20 12:37:41;;;;;;;2.95;2.30;;;3.30;77.40;;;;;;20910268;28;20036;-54
2021/03/20 12:47:43;;;;;;;4.45;3.08;;;3.30;80.20;;;;;;20911081;28;20037;-55
2021/03/20 12:57:45;;;;;;;4.72;3.20;;;4.10;84.70;;;;;;20875681;28;20063;-51
2021/03/20 13:07:47;;;;;;;6.35;3.55;;;4.90;80.30;;;;;;20908545;28;20454;-56
2021/03/20 13:17:50;;;;;;;5.05;3.35;;;4.40;81.80;;;;;;20875336;28;20083;-50
2021/03/20 13:27:53;;;;;;;5.70;3.47;;;4.40;84.40;;;;;;20890987;28;20045;-54
2021/03/20 13:37:55;;;;;;;6.38;3.40;;;3.80;84.40;;;;;;20907327;28;20082;-57
2021/03/20 13:47:59;;;;;;;6.75;3.72;;;2.80;89.10;;;;;;20890379;28;20029;-58
2021/03/20 13:58:02;;;;;;;5.55;3.30;;;2.40;91.20;;;;;;20905293;28;20056;-55
2021/03/20 14:08:06;;;;;;;4.93;3.45;;;2.20;91.80;;;;;;20913172;28;20079;-55
2021/03/20 14:18:12;;;;;;;5.95;3.42;;;2.30;92.30;;;;;;20921270;28;20025;-57
2021/03/20 14:28:15;;;;;;;7.55;3.97;;;1.70;93.10;;;;;;20920045;28;20381;-56
2021/03/20 14:38:18;;;;;;;5.43;3.58;;;1.30;93.90;;;;;;20919575;28;20021;-55
2021/03/20 14:48:27;;;;;;;6.05;3.45;;;0.70;94.60;;;;;;20918614;28;20057;-56
2021/03/20 14:58:30;;;;;;;4.65;2.85;;;0.30;94.70;;;;;;20919119;28;20040;-54
2021/03/20 15:08:32;;;;;;;5.00;3.15;;;1.30;92.20;;;;;;20918201;28;20072;-55
2021/03/20 15:18:38;;;;;;;5.25;3.08;;;2.00;90.00;;;;;;20915957;28;20029;-58
2021/03/20 15:28:41;;;;;;;4.28;2.92;;;1.70;88.10;;;;;;20899063;28;20037;-55
2021/03/20 15:38:44;;;;;;;4.18;2.58;;;1.30;88.20;;;;;;20898189;28;20079;-56
2021/03/20 15:48:46;;;;;;;5.30;2.83;;;1.10;90.40;;;;;;20915356;28;20036;-57
2021/03/20 15:58:49;;;;;;;4.55;2.97;;;1.20;87.80;;;;;;20913016;28;20033;-56
2021/03/20 16:08:53;;;;;;;4.85;3.00;;;1.40;87.90;;;;;;20912570;28;20053;-56
2021/03/20 16:18:55;;;;;;;7.22;3.17;;;1.50;89.30;;;;;;20912586;28;20037;-53
2021/03/20 16:28:58;;;;;;;6.25;3.60;;;1.40;88.40;;;;;;20910430;28;20055;-55
2021/03/20 16:39:04;;;;;;;6.20;3.92;;;1.00;90.50;;;;;;20910164;28;20041;-53
2021/03/20 16:49:07;;;;;;;8.77;4.18;;;0.40;92.70;;;;;;20909402;28;20099;-58
2021/03/20 16:59:11;;;;;;;7.68;4.50;;;-0.20;95.00;;;;;;20908801;28;20086;-57
2021/03/20 17:09:13;;;;;;;6.82;4.20;;;-0.80;97.10;;;;;;20908180;28;20071;-54
2021/03/20 17:19:16;;;;;;;6.43;4.10;;;-1.20;99.00;;;;;;20908029;28;20037;-54
2021/03/20 17:29:18;;;;;;;9.93;4.95;;;-1.40;99.90;;;;;;20908363;28;20053;-56
2021/03/20 17:39:21;;;;;;;10.32;5.05;;;-1.80;99.90;;;;;;20910437;28;20098;-57
2021/03/20 17:49:23;;;;;;;12.32;5.80;;;-1.80;99.90;;;;;;20924699;28;20037;-57
2021/03/20 17:59:25;;;;;;;11.60;5.65;;;-1.80;99.90;;;;;;20923636;28;20525;-57
2021/03/20 18:09:30;;;;;;;10.48;6.18;;;-1.90;99.90;;;;;;20922906;28;20496;-57
2021/03/20 18:19:32;;;;;;;9.30;5.45;;;-2.30;99.90;;;;;;20904438;28;20649;-52
2021/03/20 18:29:36;;;;;;;11.90;6.05;;;-2.70;99.90;;;;;;20921240;28;20492;-57
2021/03/20 18:39:38;;;;;;;11.57;5.50;;;-3.20;99.90;;;;;;20902947;28;20439;-55
2021/03/20 18:49:40;;;;;;;10.38;5.68;;;-3.60;99.90;;;;;;20885504;28;20079;-55
2021/03/20 18:59:43;;;;;;;12.40;5.35;;;-3.90;99.90;;;;;;20917259;28;20033;-52
2021/03/20 19:09:45;;;;;;;9.30;5.50;;;-4.00;99.90;;;;;;20917046;28;20068;-55
2021/03/20 19:19:47;;;;;;;10.43;5.60;;;-4.10;99.90;;;;;;20883248;28;20373;-56
2021/03/20 19:29:51;;;;;;;10.73;5.10;;;-4.40;99.90;;;;;;20916503;28;20071;-57
2021/03/20 19:39:53;;;;;;;12.07;6.88;;;-4.70;99.90;;;;;;20915696;28;20045;-54
2021/03/20 19:49:57;;;;;;;6.65;4.00;;;-4.90;99.90;;;;;;20913821;28;20049;-56
2021/03/20 20:00:00;;;;;;;4.25;2.35;;;-5.10;99.90;;;;;;20896817;28;20033;-56
2021/03/20 20:10:07;;;;;;;2.20;1.35;;;-5.20;99.90;;;;;;20913665;28;20408;-53
2021/03/20 20:20:13;;;;;;;2.50;1.40;;;-5.20;99.90;;;;;;20912784;28;20037;-56
2021/03/20 20:30:19;;;;;;;3.10;1.40;;;-5.20;99.90;;;;;;20912125;28;20045;-55
2021/03/20 20:40:23;;;;;;;4.20;1.95;;;-5.20;99.90;;;;;;20877607;28;20091;-55
2021/03/20 20:50:28;;;;;;;3.72;2.03;;;-5.10;99.90;;;;;;20909699;28;20432;-55
2021/03/20 21:00:32;;;;;;;4.13;1.75;;;-5.20;99.90;;;;;;20876085;28;20087;-55
2021/03/20 21:10:36;;;;;;;4.35;1.83;;;-5.40;99.90;;;;;;20908117;28;20056;-55
2021/03/20 21:20:41;;;;;;;3.80;1.63;;;-5.70;99.90;;;;;;20874974;28;20032;-52
2021/03/20 21:30:45;;;;;;;3.63;1.60;;;-5.70;99.90;;;;;;20907490;28;20052;-52
2021/03/20 21:40:48;;;;;;;2.83;1.67;;;-5.80;99.90;;;;;;20907706;28;20029;-55
2021/03/20 21:50:50;;;;;;;3.17;1.45;;;-6.00;99.90;;;;;;20908597;28;20049;-55
2021/03/20 22:00:53;;;;;;;3.53;1.53;;;-6.00;99.90;;;;;;20907664;28;20045;-53
2021/03/20 22:10:56;;;;;;;2.83;1.10;;;-6.10;99.90;;;;;;20907055;28;20053;-54
2021/03/20 22:21:01;;;;;;;3.63;1.77;;;-6.20;99.90;;;;;;20907035;28;20091;-54
2021/03/20 22:31:13;;;;;;;3.17;1.38;;;-6.10;99.20;;;;;;20914924;28;20107;-55
2021/03/20 22:41:17;;;;;;;3.03;1.17;;;-5.80;98.90;;;;;;20920677;28;20222;-54
2021/03/20 22:51:19;;;;;;;5.28;1.40;;;-5.70;98.50;;;;;;20901921;28;20447;-53
2021/03/20 23:01:21;;;;;;;2.22;1.05;;;-5.70;98.60;;;;;;20919191;28;20094;-56
2021/03/20 23:11:29;;;;;;;1.60;0.87;;;-5.80;97.90;;;;;;20916945;28;20053;-54
2021/03/20 23:21:31;;;;;;;2.50;1.15;;;-5.80;95.70;;;;;;20917890;28;20082;-52
2021/03/20 23:31:34;;;;;;;2.40;0.80;;;-5.40;94.00;;;;;;20917071;28;20045;-51
2021/03/20 23:41:36;;;;;;;1.92;0.73;;;-5.50;92.80;;;;;;20914665;28;20045;-53
2021/03/20 23:51:37;;;;;;;1.02;0.65;;;-5.20;83.70;;;;;;20915025;28;20071;-54
